sensor_id;sensor_type;location;lat;lon;timestamp;temperature;humidity
2861;DHT22;1438;50.922;6.704;2022-08-21T06:18:16;22.00;99.90
2861;DHT22;1438;50.922;6.704;2022-08-21T06:20:42;22.60;99.90
2861;DHT22;1438;50.922;6.704;2022-08-21T06:23:08;22.00;99.90
2861;DHT22;1438;50.922;6.704;2022-08-21T06:25:34;21.50;99.90
2861;DHT22;1438;50.922;6.704;2022-08-21T06:28:05;20.80;99.90
2861;DHT22;1438;50.922;6.704;2022-08-21T06:30:32;19.90;99.90
2861;DHT22;1438;50.922;6.704;2022-08-21T06:32:58;19.20;99.90
2861;DHT22;1438;50.922;6.704;2022-08-21T06:35:23;18.80;99.90
2861;DHT22;1438;50.922;6.704;2022-08-21T06:37:50;18.10;99.90
2861;DHT22;1438;50.922;6.704;2022-08-21T06:40:16;17.50;99.90
2861;DHT22;1438;50.922;6.704;2022-08-21T06:42:42;17.30;99.90
2861;DHT22;1438;50.922;6.704;2022-08-21T06:45:08;17.50;99.90
2861;DHT22;1438;50.922;6.704;2022-08-21T06:47:34;17.70;99.90
2861;DHT22;1438;50.922;6.704;2022-08-21T06:49:59;17.50;99.90
2861;DHT22;1438;50.922;6.704;2022-08-21T06:52:25;17.60;99.90
2861;DHT22;1438;50.922;6.704;2022-08-21T06:54:51;17.50;99.90
2861;DHT22;1438;50.922;6.704;2022-08-21T06:57:16;17.60;99.90
2861;DHT22;1438;50.922;6.704;2022-08-21T06:59:42;17.80;99.90
2861;DHT22;1438;50.922;6.704;2022-08-21T07:02:07;17.90;99.90
2861;DHT22;1438;50.922;6.704;2022-08-21T07:04:33;18.00;99.90
2861;DHT22;1438;50.922;6.704;2022-08-21T07:06:59;17.80;99.90
2861;DHT22;1438;50.922;6.704;2022-08-21T07:09:24;17.60;99.90
2861;DHT22;1438;50.922;6.704;2022-08-21T07:11:52;17.90;99.90
2861;DHT22;1438;50.922;6.704;2022-08-21T07:14:18;17.90;99.90
2861;DHT22;1438;50.922;6.704;2022-08-21T07:16:44;17.80;99.90
2861;DHT22;1438;50.922;6.704;2022-08-21T07:19:10;17.70;99.90
2861;DHT22;1438;50.922;6.704;2022-08-21T07:21:36;17.70;99.90
2861;DHT22;1438;50.922;6.704;2022-08-21T07:24:02;17.80;99.90
2861;DHT22;1438;50.922;6.704;2022-08-21T07:26:27;17.80;99.90
2861;DHT22;1438;50.922;6.704;2022-08-21T07:28:53;18.00;99.90
2861;DHT22;1438;50.922;6.704;2022-08-21T07:31:21;18.10;99.90
2861;DHT22;1438;50.922;6.704;2022-08-21T07:33:48;18.10;99.90
2861;DHT22;1438;50.922;6.704;2022-08-21T07:36:14;18.10;99.90
2861;DHT22;1438;50.922;6.704;2022-08-21T07:38:40;18.30;99.90
2861;DHT22;1438;50.922;6.704;2022-08-21T07:41:27;18.60;99.90
2861;DHT22;1438;50.922;6.704;2022-08-21T07:43:55;18.60;99.90
2861;DHT22;1438;50.922;6.704;2022-08-21T07:46:21;18.60;99.90
2861;DHT22;1438;50.922;6.704;2022-08-21T07:48:46;18.60;99.90
2861;DHT22;1438;50.922;6.704;2022-08-21T07:51:13;18.80;99.90
2861;DHT22;1438;50.922;6.704;2022-08-21T07:53:39;18.90;99.90
2861;DHT22;1438;50.922;6.704;2022-08-21T07:56:06;18.90;99.90
2861;DHT22;1438;50.922;6.704;2022-08-21T07:58:33;19.00;99.90
2861;DHT22;1438;50.922;6.704;2022-08-21T08:01:41;19.00;99.90
2861;DHT22;1438;50.922;6.704;2022-08-21T08:04:37;19.20;99.90
2861;DHT22;1438;50.922;6.704;2022-08-21T08:07:31;19.50;99.90
2861;DHT22;1438;50.922;6.704;2022-08-21T08:14:24;19.70;99.90
2861;DHT22;1438;50.922;6.704;2022-08-21T08:17:10;19.80;99.90
2861;DHT22;1438;50.922;6.704;2022-08-21T08:22:21;20.60;99.90
2861;DHT22;1438;50.922;6.704;2022-08-21T08:24:48;20.90;99.90
2861;DHT22;1438;50.922;6.704;2022-08-21T08:27:14;21.10;99.90
2861;DHT22;1438;50.922;6.704;2022-08-21T08:29:40;21.50;99.90
2861;DHT22;1438;50.922;6.704;2022-08-21T08:32:06;21.60;99.90
2861;DHT22;1438;50.922;6.704;2022-08-21T08:34:36;21.80;99.90
2861;DHT22;1438;50.922;6.704;2022-08-21T08:37:02;21.90;99.90
2861;DHT22;1438;50.922;6.704;2022-08-21T08:39:28;23.00;99.90
2861;DHT22;1438;50.922;6.704;2022-08-21T08:44:33;23.00;99.90
2861;DHT22;1438;50.922;6.704;2022-08-21T08:47:01;23.10;99.90
2861;DHT22;1438;50.922;6.704;2022-08-21T08:49:29;23.10;99.90
2861;DHT22;1438;50.922;6.704;2022-08-21T08:52:05;22.90;99.90
2861;DHT22;1438;50.922;6.704;2022-08-21T08:54:40;23.20;99.90
2861;DHT22;1438;50.922;6.704;2022-08-21T08:57:13;23.60;99.90
2861;DHT22;1438;50.922;6.704;2022-08-21T08:59:43;23.40;99.90
2861;DHT22;1438;50.922;6.704;2022-08-21T09:02:12;23.30;99.90
2861;DHT22;1438;50.922;6.704;2022-08-21T09:04:38;23.60;99.90
2861;DHT22;1438;50.922;6.704;2022-08-21T09:07:24;23.70;99.90
2861;DHT22;1438;50.922;6.704;2022-08-21T09:10:03;23.70;99.90
2861;DHT22;1438;50.922;6.704;2022-08-21T09:17:59;24.70;99.90
2861;DHT22;1438;50.922;6.704;2022-08-21T09:29:46;25.10;99.90
2861;DHT22;1438;50.922;6.704;2022-08-21T09:35:23;25.30;99.90
2861;DHT22;1438;50.922;6.704;2022-08-21T09:41:11;24.40;99.90
2861;DHT22;1438;50.922;6.704;2022-08-21T09:47:06;25.70;99.90
2861;DHT22;1438;50.922;6.704;2022-08-21T09:52:21;26.60;99.90
2861;DHT22;1438;50.922;6.704;2022-08-21T09:54:51;26.30;99.90
2861;DHT22;1438;50.922;6.704;2022-08-21T09:57:28;26.60;99.90
2861;DHT22;1438;50.922;6.704;2022-08-21T10:00:32;27.30;99.90
2861;DHT22;1438;50.922;6.704;2022-08-21T10:03:27;27.80;99.90
2861;DHT22;1438;50.922;6.704;2022-08-21T10:08:22;28.60;99.90
2861;DHT22;1438;50.922;6.704;2022-08-21T10:29:38;28.50;99.90
2861;DHT22;1438;50.922;6.704;2022-08-21T10:35:06;27.60;99.90
2861;DHT22;1438;50.922;6.704;2022-08-21T10:43:39;27.20;99.90
2861;DHT22;1438;50.922;6.704;2022-08-21T10:48:50;26.30;99.90
2861;DHT22;1438;50.922;6.704;2022-08-21T10:51:35;25.80;99.90
2861;DHT22;1438;50.922;6.704;2022-08-21T10:54:18;25.80;99.90
2861;DHT22;1438;50.922;6.704;2022-08-21T10:56:50;25.70;99.90
2861;DHT22;1438;50.922;6.704;2022-08-21T10:59:31;26.60;99.90
2861;DHT22;1438;50.922;6.704;2022-08-21T11:02:21;26.00;99.90
2861;DHT22;1438;50.922;6.704;2022-08-21T11:07:54;27.10;99.90
2861;DHT22;1438;50.922;6.704;2022-08-21T11:10:31;27.50;99.90
2861;DHT22;1438;50.922;6.704;2022-08-21T11:13:02;27.30;99.90
2861;DHT22;1438;50.922;6.704;2022-08-21T11:15:39;27.70;99.90
2861;DHT22;1438;50.922;6.704;2022-08-21T11:20:58;27.80;99.90
2861;DHT22;1438;50.922;6.704;2022-08-21T11:26:07;27.10;99.90
2861;DHT22;1438;50.922;6.704;2022-08-21T11:28:43;27.30;99.90
2861;DHT22;1438;50.922;6.704;2022-08-21T11:31:22;27.20;99.90
2861;DHT22;1438;50.922;6.704;2022-08-21T11:34:05;26.70;99.90
2861;DHT22;1438;50.922;6.704;2022-08-21T11:36:50;27.30;99.90
2861;DHT22;1438;50.922;6.704;2022-08-21T11:42:20;28.80;99.90
2861;DHT22;1438;50.922;6.704;2022-08-21T11:47:58;28.80;99.90
2861;DHT22;1438;50.922;6.704;2022-08-21T11:50:30;28.50;99.90
2861;DHT22;1438;50.922;6.704;2022-08-21T11:53:10;29.00;99.90
2861;DHT22;1438;50.922;6.704;2022-08-21T11:55:41;29.60;99.90
2861;DHT22;1438;50.922;6.704;2022-08-21T11:58:25;30.20;99.90
2861;DHT22;1438;50.922;6.704;2022-08-21T12:01:20;30.60;99.90
2861;DHT22;1438;50.922;6.704;2022-08-21T12:03:55;29.90;99.90
2861;DHT22;1438;50.922;6.704;2022-08-21T12:06:35;30.00;99.90
2861;DHT22;1438;50.922;6.704;2022-08-21T12:09:10;29.80;99.90
2861;DHT22;1438;50.922;6.704;2022-08-21T12:11:49;29.60;99.90
2861;DHT22;1438;50.922;6.704;2022-08-21T12:14:17;29.40;99.90
2861;DHT22;1438;50.922;6.704;2022-08-21T12:16:48;29.70;99.90
2861;DHT22;1438;50.922;6.704;2022-08-21T12:22:18;30.20;99.60
2861;DHT22;1438;50.922;6.704;2022-08-21T12:24:48;29.80;99.50
2861;DHT22;1438;50.922;6.704;2022-08-21T12:29:48;30.30;99.10
2861;DHT22;1438;50.922;6.704;2022-08-21T12:34:51;30.20;98.40
2861;DHT22;1438;50.922;6.704;2022-08-21T12:37:45;30.30;99.60
2861;DHT22;1438;50.922;6.704;2022-08-21T12:43:31;31.00;96.80
2861;DHT22;1438;50.922;6.704;2022-08-21T12:45:59;30.70;96.40
2861;DHT22;1438;50.922;6.704;2022-08-21T12:48:36;29.70;97.90
2861;DHT22;1438;50.922;6.704;2022-08-21T12:53:38;30.50;97.00
2861;DHT22;1438;50.922;6.704;2022-08-21T12:56:11;30.50;96.90
2861;DHT22;1438;50.922;6.704;2022-08-21T12:58:43;30.50;97.00
2861;DHT22;1438;50.922;6.704;2022-08-21T13:01:35;30.30;95.30
2861;DHT22;1438;50.922;6.704;2022-08-21T13:04:08;30.20;95.40
2861;DHT22;1438;50.922;6.704;2022-08-21T13:06:51;30.30;95.60
2861;DHT22;1438;50.922;6.704;2022-08-21T13:09:20;30.50;95.90
2861;DHT22;1438;50.922;6.704;2022-08-21T13:11:48;30.50;94.80
2861;DHT22;1438;50.922;6.704;2022-08-21T13:14:36;30.10;95.50
2861;DHT22;1438;50.922;6.704;2022-08-21T13:17:04;30.00;95.80
2861;DHT22;1438;50.922;6.704;2022-08-21T13:19:31;30.00;95.90
2861;DHT22;1438;50.922;6.704;2022-08-21T13:21:58;30.00;95.70
2861;DHT22;1438;50.922;6.704;2022-08-21T13:24:25;29.90;94.30
2861;DHT22;1438;50.922;6.704;2022-08-21T13:26:52;29.80;95.10
2861;DHT22;1438;50.922;6.704;2022-08-21T13:29:21;29.80;94.50
2861;DHT22;1438;50.922;6.704;2022-08-21T13:31:59;29.90;93.90
2861;DHT22;1438;50.922;6.704;2022-08-21T13:34:29;30.50;93.60
2861;DHT22;1438;50.922;6.704;2022-08-21T13:37:02;30.50;93.40
2861;DHT22;1438;50.922;6.704;2022-08-21T13:39:29;30.50;93.00
2861;DHT22;1438;50.922;6.704;2022-08-21T13:41:57;30.80;91.80
2861;DHT22;1438;50.922;6.704;2022-08-21T13:46:58;30.70;90.50
2861;DHT22;1438;50.922;6.704;2022-08-21T13:49:47;30.70;91.70
2861;DHT22;1438;50.922;6.704;2022-08-21T13:52:22;31.00;90.70
2861;DHT22;1438;50.922;6.704;2022-08-21T13:55:11;30.90;90.00
2861;DHT22;1438;50.922;6.704;2022-08-21T13:57:37;30.90;89.80
2861;DHT22;1438;50.922;6.704;2022-08-21T14:00:15;30.60;90.30
2861;DHT22;1438;50.922;6.704;2022-08-21T14:02:45;30.60;90.10
2861;DHT22;1438;50.922;6.704;2022-08-21T14:05:25;30.50;90.00
2861;DHT22;1438;50.922;6.704;2022-08-21T14:08:05;29.90;89.20
2861;DHT22;1438;50.922;6.704;2022-08-21T14:10:35;29.30;90.70
2861;DHT22;1438;50.922;6.704;2022-08-21T14:13:05;29.00;91.10
2861;DHT22;1438;50.922;6.704;2022-08-21T14:15:32;28.80;91.80
2861;DHT22;1438;50.922;6.704;2022-08-21T14:18:16;28.60;91.20
2861;DHT22;1438;50.922;6.704;2022-08-21T14:20:42;28.80;92.00
2861;DHT22;1438;50.922;6.704;2022-08-21T14:23:08;28.70;91.90
2861;DHT22;1438;50.922;6.704;2022-08-21T14:25:42;28.20;92.20
2861;DHT22;1438;50.922;6.704;2022-08-21T14:28:33;27.80;93.00
2861;DHT22;1438;50.922;6.704;2022-08-21T14:31:11;27.90;92.30
2861;DHT22;1438;50.922;6.704;2022-08-21T14:33:40;27.70;93.70
2861;DHT22;1438;50.922;6.704;2022-08-21T14:36:06;27.60;93.10
2861;DHT22;1438;50.922;6.704;2022-08-21T14:38:35;27.60;93.80
2861;DHT22;1438;50.922;6.704;2022-08-21T14:41:08;27.50;94.40
2861;DHT22;1438;50.922;6.704;2022-08-21T14:43:36;27.30;94.70
2861;DHT22;1438;50.922;6.704;2022-08-21T14:46:02;27.00;95.20
2861;DHT22;1438;50.922;6.704;2022-08-21T14:48:28;26.80;95.20
2861;DHT22;1438;50.922;6.704;2022-08-21T14:50:54;26.60;95.50
2861;DHT22;1438;50.922;6.704;2022-08-21T14:53:20;26.50;96.60
2861;DHT22;1438;50.922;6.704;2022-08-21T14:55:46;26.50;97.10
2861;DHT22;1438;50.922;6.704;2022-08-21T14:58:30;26.40;96.80
2861;DHT22;1438;50.922;6.704;2022-08-21T15:00:56;26.40;96.80
2861;DHT22;1438;50.922;6.704;2022-08-21T15:03:25;26.30;97.60
2861;DHT22;1438;50.922;6.704;2022-08-21T15:05:51;26.00;97.70
2861;DHT22;1438;50.922;6.704;2022-08-21T15:08:17;25.80;99.10
2861;DHT22;1438;50.922;6.704;2022-08-21T15:10:43;25.90;99.80
2861;DHT22;1438;50.922;6.704;2022-08-21T15:13:10;25.80;99.30
2861;DHT22;1438;50.922;6.704;2022-08-21T15:15:40;25.80;99.90
2861;DHT22;1438;50.922;6.704;2022-08-21T15:18:06;25.80;99.90
2861;DHT22;1438;50.922;6.704;2022-08-21T15:20:33;25.80;99.90
2861;DHT22;1438;50.922;6.704;2022-08-21T15:22:58;25.80;99.90
2861;DHT22;1438;50.922;6.704;2022-08-21T15:25:24;25.80;99.90
2861;DHT22;1438;50.922;6.704;2022-08-21T15:27:50;25.90;99.90
2861;DHT22;1438;50.922;6.704;2022-08-21T15:30:16;25.90;99.90
2861;DHT22;1438;50.922;6.704;2022-08-21T15:32:41;25.90;98.20
2861;DHT22;1438;50.922;6.704;2022-08-21T15:35:08;26.00;98.20
2861;DHT22;1438;50.922;6.704;2022-08-21T15:37:34;25.80;97.60
2861;DHT22;1438;50.922;6.704;2022-08-21T15:40:00;25.70;97.10
2861;DHT22;1438;50.922;6.704;2022-08-21T15:42:26;25.80;97.40
2861;DHT22;1438;50.922;6.704;2022-08-21T15:44:54;25.90;95.80
2861;DHT22;1438;50.922;6.704;2022-08-21T15:47:24;26.20;95.40
2861;DHT22;1438;50.922;6.704;2022-08-21T15:49:51;26.40;94.30
2861;DHT22;1438;50.922;6.704;2022-08-21T15:52:19;26.40;95.10
2861;DHT22;1438;50.922;6.704;2022-08-21T15:54:46;26.60;94.00
2861;DHT22;1438;50.922;6.704;2022-08-21T15:57:15;26.80;93.50
2861;DHT22;1438;50.922;6.704;2022-08-21T15:59:48;27.10;93.10
2861;DHT22;1438;50.922;6.704;2022-08-21T16:02:20;27.80;92.80
2861;DHT22;1438;50.922;6.704;2022-08-21T16:04:46;28.10;91.10
2861;DHT22;1438;50.922;6.704;2022-08-21T16:07:13;28.40;91.70
2861;DHT22;1438;50.922;6.704;2022-08-21T16:09:39;28.80;91.40
2861;DHT22;1438;50.922;6.704;2022-08-21T16:12:05;29.30;90.60
2861;DHT22;1438;50.922;6.704;2022-08-21T16:14:32;29.60;87.10
2861;DHT22;1438;50.922;6.704;2022-08-21T16:16:59;29.50;86.20
2861;DHT22;1438;50.922;6.704;2022-08-21T16:19:26;29.10;87.50
2861;DHT22;1438;50.922;6.704;2022-08-21T16:21:53;29.00;88.30
2861;DHT22;1438;50.922;6.704;2022-08-21T16:24:18;29.20;87.10
2861;DHT22;1438;50.922;6.704;2022-08-21T16:26:45;29.00;88.80
2861;DHT22;1438;50.922;6.704;2022-08-21T16:29:11;28.90;88.90
2861;DHT22;1438;50.922;6.704;2022-08-21T16:31:37;28.80;89.20
2861;DHT22;1438;50.922;6.704;2022-08-21T16:34:03;28.60;89.90
2861;DHT22;1438;50.922;6.704;2022-08-21T16:36:28;28.40;90.00
2861;DHT22;1438;50.922;6.704;2022-08-21T16:38:55;27.90;90.90
2861;DHT22;1438;50.922;6.704;2022-08-21T16:41:23;27.60;92.20
2861;DHT22;1438;50.922;6.704;2022-08-21T16:43:51;27.40;92.30
2861;DHT22;1438;50.922;6.704;2022-08-21T16:46:17;27.20;92.80
2861;DHT22;1438;50.922;6.704;2022-08-21T16:48:43;27.20;93.20
2861;DHT22;1438;50.922;6.704;2022-08-21T16:51:10;27.10;93.20
2861;DHT22;1438;50.922;6.704;2022-08-21T16:53:36;26.90;94.30
2861;DHT22;1438;50.922;6.704;2022-08-21T16:56:02;26.70;94.90
2861;DHT22;1438;50.922;6.704;2022-08-21T16:58:36;26.50;95.40
2861;DHT22;1438;50.922;6.704;2022-08-21T17:01:10;26.40;96.40
2861;DHT22;1438;50.922;6.704;2022-08-21T17:03:40;26.20;98.00
2861;DHT22;1438;50.922;6.704;2022-08-21T17:06:07;26.10;99.60
2861;DHT22;1438;50.922;6.704;2022-08-21T17:08:33;26.10;99.90
2861;DHT22;1438;50.922;6.704;2022-08-21T17:11:00;26.00;99.90
2861;DHT22;1438;50.922;6.704;2022-08-21T17:13:27;25.80;99.90
2861;DHT22;1438;50.922;6.704;2022-08-21T17:15:53;25.70;99.90
2861;DHT22;1438;50.922;6.704;2022-08-21T17:18:21;25.50;99.90
2861;DHT22;1438;50.922;6.704;2022-08-21T17:20:49;25.40;99.90
2861;DHT22;1438;50.922;6.704;2022-08-21T17:23:16;25.30;99.90
2861;DHT22;1438;50.922;6.704;2022-08-21T17:25:45;25.20;99.90
2861;DHT22;1438;50.922;6.704;2022-08-21T17:28:24;25.10;99.90
2861;DHT22;1438;50.922;6.704;2022-08-21T17:30:51;25.00;99.90
2861;DHT22;1438;50.922;6.704;2022-08-21T17:33:19;25.00;99.90
2861;DHT22;1438;50.922;6.704;2022-08-21T17:35:46;24.80;99.90
2861;DHT22;1438;50.922;6.704;2022-08-21T17:38:12;24.70;99.90
2861;DHT22;1438;50.922;6.704;2022-08-21T17:40:38;24.70;99.90
2861;DHT22;1438;50.922;6.704;2022-08-21T17:43:06;24.50;99.90
2861;DHT22;1438;50.922;6.704;2022-08-21T17:45:33;24.40;99.90
2861;DHT22;1438;50.922;6.704;2022-08-21T17:47:59;24.20;99.90
2861;DHT22;1438;50.922;6.704;2022-08-21T17:50:26;24.10;99.90
2861;DHT22;1438;50.922;6.704;2022-08-21T17:52:52;23.90;99.90
2861;DHT22;1438;50.922;6.704;2022-08-21T17:55:18;23.80;99.90
2861;DHT22;1438;50.922;6.704;2022-08-21T17:57:49;23.60;99.90
2861;DHT22;1438;50.922;6.704;2022-08-21T18:00:17;23.70;99.90
2861;DHT22;1438;50.922;6.704;2022-08-21T18:02:45;23.60;99.90
2861;DHT22;1438;50.922;6.704;2022-08-21T18:05:12;23.60;99.90
2861;DHT22;1438;50.922;6.704;2022-08-21T18:07:39;23.60;99.90
2861;DHT22;1438;50.922;6.704;2022-08-21T18:10:09;23.50;99.90
2861;DHT22;1438;50.922;6.704;2022-08-21T18:12:41;23.50;99.90
2861;DHT22;1438;50.922;6.704;2022-08-21T18:15:09;23.50;99.90
2861;DHT22;1438;50.922;6.704;2022-08-21T18:17:36;23.50;99.90
2861;DHT22;1438;50.922;6.704;2022-08-21T18:20:04;23.50;99.90
2861;DHT22;1438;50.922;6.704;2022-08-21T18:22:30;23.40;99.90
2861;DHT22;1438;50.922;6.704;2022-08-21T18:24:58;23.30;99.90
2861;DHT22;1438;50.922;6.704;2022-08-21T18:27:27;23.20;99.90
2861;DHT22;1438;50.922;6.704;2022-08-21T18:46:02;22.90;99.90
2861;DHT22;1438;50.922;6.704;2022-08-21T19:03:10;22.20;99.90
2861;DHT22;1438;50.922;6.704;2022-08-21T19:05:36;21.90;99.90
2861;DHT22;1438;50.922;6.704;2022-08-21T19:08:04;21.80;99.90
2861;DHT22;1438;50.922;6.704;2022-08-21T19:10:30;21.80;99.90
2861;DHT22;1438;50.922;6.704;2022-08-21T19:12:59;21.90;99.90
2861;DHT22;1438;50.922;6.704;2022-08-21T19:15:25;21.60;99.90
2861;DHT22;1438;50.922;6.704;2022-08-21T19:17:53;21.60;99.90
2861;DHT22;1438;50.922;6.704;2022-08-21T19:20:38;21.60;99.90
2861;DHT22;1438;50.922;6.704;2022-08-21T19:23:07;21.30;99.90
2861;DHT22;1438;50.922;6.704;2022-08-21T19:25:35;21.40;99.90
2861;DHT22;1438;50.922;6.704;2022-08-21T19:28:07;21.40;99.90
2861;DHT22;1438;50.922;6.704;2022-08-21T19:30:37;21.30;99.90
2861;DHT22;1438;50.922;6.704;2022-08-21T19:33:07;21.30;99.90
2861;DHT22;1438;50.922;6.704;2022-08-21T19:35:34;21.40;99.90
2861;DHT22;1438;50.922;6.704;2022-08-21T19:38:00;21.40;99.90
2861;DHT22;1438;50.922;6.704;2022-08-21T19:40:25;21.50;99.90
2861;DHT22;1438;50.922;6.704;2022-08-21T19:42:51;21.50;99.90
2861;DHT22;1438;50.922;6.704;2022-08-21T19:45:17;21.50;99.90
2861;DHT22;1438;50.922;6.704;2022-08-21T19:47:47;21.10;99.90
2861;DHT22;1438;50.922;6.704;2022-08-21T19:50:14;20.90;99.90
2861;DHT22;1438;50.922;6.704;2022-08-21T19:52:40;20.60;99.90
2861;DHT22;1438;50.922;6.704;2022-08-21T19:55:08;20.70;99.90
2861;DHT22;1438;50.922;6.704;2022-08-21T19:57:36;20.80;99.90
2861;DHT22;1438;50.922;6.704;2022-08-21T20:00:06;20.80;99.90
2861;DHT22;1438;50.922;6.704;2022-08-21T20:02:34;20.80;99.90
2861;DHT22;1438;50.922;6.704;2022-08-21T20:05:00;20.70;99.90
2861;DHT22;1438;50.922;6.704;2022-08-21T20:07:26;20.80;99.90
2861;DHT22;1438;50.922;6.704;2022-08-21T20:09:51;20.80;99.90
2861;DHT22;1438;50.922;6.704;2022-08-21T20:12:17;20.60;99.90
2861;DHT22;1438;50.922;6.704;2022-08-21T20:14:45;20.50;99.90
2861;DHT22;1438;50.922;6.704;2022-08-21T20:17:14;20.70;99.90
2861;DHT22;1438;50.922;6.704;2022-08-21T20:19:42;20.70;99.90
2861;DHT22;1438;50.922;6.704;2022-08-21T20:22:09;20.70;99.90
2861;DHT22;1438;50.922;6.704;2022-08-21T20:24:35;20.80;99.90
2861;DHT22;1438;50.922;6.704;2022-08-21T20:27:02;20.80;99.90
2861;DHT22;1438;50.922;6.704;2022-08-21T20:29:28;20.90;99.90
2861;DHT22;1438;50.922;6.704;2022-08-21T20:31:55;20.80;99.90
2861;DHT22;1438;50.922;6.704;2022-08-21T20:34:21;20.80;99.90
2861;DHT22;1438;50.922;6.704;2022-08-21T20:36:47;20.80;99.90
2861;DHT22;1438;50.922;6.704;2022-08-21T20:39:13;20.80;99.90
2861;DHT22;1438;50.922;6.704;2022-08-21T20:41:38;20.80;99.90
2861;DHT22;1438;50.922;6.704;2022-08-21T20:44:07;20.70;99.90
2861;DHT22;1438;50.922;6.704;2022-08-21T20:46:36;20.40;99.90
2861;DHT22;1438;50.922;6.704;2022-08-21T20:49:02;20.30;99.90
2861;DHT22;1438;50.922;6.704;2022-08-21T20:51:37;20.40;99.90
2861;DHT22;1438;50.922;6.704;2022-08-21T20:56:52;20.50;99.90
2861;DHT22;1438;50.922;6.704;2022-08-21T21:07:37;20.40;99.90
2861;DHT22;1438;50.922;6.704;2022-08-21T21:10:10;20.20;99.90
2861;DHT22;1438;50.922;6.704;2022-08-21T21:12:40;20.20;99.90
2861;DHT22;1438;50.922;6.704;2022-08-21T21:15:16;20.10;99.90
2861;DHT22;1438;50.922;6.704;2022-08-21T21:18:01;19.80;99.90
2861;DHT22;1438;50.922;6.704;2022-08-21T21:20:43;19.90;99.90
2861;DHT22;1438;50.922;6.704;2022-08-21T21:23:15;20.00;99.90
2861;DHT22;1438;50.922;6.704;2022-08-21T21:25:47;20.00;99.90
2861;DHT22;1438;50.922;6.704;2022-08-21T21:28:24;20.00;99.90
2861;DHT22;1438;50.922;6.704;2022-08-21T21:30:50;20.00;99.90
2861;DHT22;1438;50.922;6.704;2022-08-21T21:33:16;20.00;99.90
2861;DHT22;1438;50.922;6.704;2022-08-21T21:35:48;20.00;99.90
2861;DHT22;1438;50.922;6.704;2022-08-21T21:38:42;19.80;99.90
2861;DHT22;1438;50.922;6.704;2022-08-21T21:44:45;19.60;99.90
2861;DHT22;1438;50.922;6.704;2022-08-21T21:55:50;19.60;99.90
2861;DHT22;1438;50.922;6.704;2022-08-21T22:01:11;19.60;99.90
2861;DHT22;1438;50.922;6.704;2022-08-21T22:03:52;19.80;99.90
2861;DHT22;1438;50.922;6.704;2022-08-21T22:06:40;19.80;99.90
2861;DHT22;1438;50.922;6.704;2022-08-21T22:09:19;20.00;99.90
2861;DHT22;1438;50.922;6.704;2022-08-21T22:12:03;19.90;99.90
2861;DHT22;1438;50.922;6.704;2022-08-21T22:14:40;19.80;99.90
2861;DHT22;1438;50.922;6.704;2022-08-21T22:19:47;19.80;99.90
2861;DHT22;1438;50.922;6.704;2022-08-21T22:22:19;19.80;99.90
2861;DHT22;1438;50.922;6.704;2022-08-21T22:24:48;19.70;99.90
2861;DHT22;1438;50.922;6.704;2022-08-21T22:27:18;19.80;99.90
2861;DHT22;1438;50.922;6.704;2022-08-21T22:29:50;19.70;99.90
2861;DHT22;1438;50.922;6.704;2022-08-21T22:32:34;19.70;99.90
2861;DHT22;1438;50.922;6.704;2022-08-21T22:35:17;19.70;99.90
2861;DHT22;1438;50.922;6.704;2022-08-21T22:37:47;19.70;99.90
2861;DHT22;1438;50.922;6.704;2022-08-21T22:40:30;19.70;99.90
2861;DHT22;1438;50.922;6.704;2022-08-21T22:43:04;19.60;99.90
2861;DHT22;1438;50.922;6.704;2022-08-21T22:45:47;19.60;99.90
2861;DHT22;1438;50.922;6.704;2022-08-21T22:48:19;19.40;99.90
2861;DHT22;1438;50.922;6.704;2022-08-21T22:50:46;19.60;99.90
2861;DHT22;1438;50.922;6.704;2022-08-21T22:53:23;19.50;99.90
2861;DHT22;1438;50.922;6.704;2022-08-21T22:55:56;19.50;99.90
2861;DHT22;1438;50.922;6.704;2022-08-21T22:58:27;19.40;99.90
2861;DHT22;1438;50.922;6.704;2022-08-21T23:03:53;19.10;99.90
2861;DHT22;1438;50.922;6.704;2022-08-21T23:09:34;19.10;99.90
2861;DHT22;1438;50.922;6.704;2022-08-21T23:12:26;19.10;99.90
2861;DHT22;1438;50.922;6.704;2022-08-21T23:14:53;19.20;99.90
2861;DHT22;1438;50.922;6.704;2022-08-21T23:20:23;19.10;99.90
2861;DHT22;1438;50.922;6.704;2022-08-21T23:25:44;19.00;99.90
2861;DHT22;1438;50.922;6.704;2022-08-21T23:34:09;18.80;99.90
2861;DHT22;1438;50.922;6.704;2022-08-21T23:39:45;18.60;99.90
2861;DHT22;1438;50.922;6.704;2022-08-21T23:42:43;18.60;99.90
2861;DHT22;1438;50.922;6.704;2022-08-21T23:51:00;18.60;99.90
2861;DHT22;1438;50.922;6.704;2022-08-21T23:56:24;18.40;99.90
